sensor_id;sensor_type;location;lat;lon;timestamp;temperature;humidity
25582;DHT22;13462;50.764;4.332;2023-03-01T00:02:16;0.70;99.90
25582;DHT22;13462;50.764;4.332;2023-03-01T00:04:41;0.80;99.90
25582;DHT22;13462;50.764;4.332;2023-03-01T00:07:07;0.70;99.90
25582;DHT22;13462;50.764;4.332;2023-03-01T00:09:32;0.60;99.90
25582;DHT22;13462;50.764;4.332;2023-03-01T00:11:58;0.60;99.90
25582;DHT22;13462;50.764;4.332;2023-03-01T00:14:23;0.60;99.90
25582;DHT22;13462;50.764;4.332;2023-03-01T00:16:49;0.70;99.90
25582;DHT22;13462;50.764;4.332;2023-03-01T00:19:15;0.70;99.90
25582;DHT22;13462;50.764;4.332;2023-03-01T00:21:41;0.60;99.90
25582;DHT22;13462;50.764;4.332;2023-03-01T00:24:06;0.60;99.90
25582;DHT22;13462;50.764;4.332;2023-03-01T00:26:32;0.50;99.90
25582;DHT22;13462;50.764;4.332;2023-03-01T00:28:58;0.50;99.90
25582;DHT22;13462;50.764;4.332;2023-03-01T00:31:25;0.50;99.90
25582;DHT22;13462;50.764;4.332;2023-03-01T00:33:55;0.50;99.90
25582;DHT22;13462;50.764;4.332;2023-03-01T00:36:22;0.40;99.90
25582;DHT22;13462;50.764;4.332;2023-03-01T00:38:48;0.40;99.90
25582;DHT22;13462;50.764;4.332;2023-03-01T00:41:14;0.30;99.90
25582;DHT22;13462;50.764;4.332;2023-03-01T00:43:40;0.30;99.90
25582;DHT22;13462;50.764;4.332;2023-03-01T00:46:26;0.40;99.90
25582;DHT22;13462;50.764;4.332;2023-03-01T00:48:51;0.40;99.90
25582;DHT22;13462;50.764;4.332;2023-03-01T00:51:18;0.40;99.90
25582;DHT22;13462;50.764;4.332;2023-03-01T00:53:44;0.20;99.90
25582;DHT22;13462;50.764;4.332;2023-03-01T00:56:10;0.20;99.90
25582;DHT22;13462;50.764;4.332;2023-03-01T00:58:36;0.30;99.90
25582;DHT22;13462;50.764;4.332;2023-03-01T01:01:07;0.20;99.90
25582;DHT22;13462;50.764;4.332;2023-03-01T01:03:32;0.20;99.90
25582;DHT22;13462;50.764;4.332;2023-03-01T01:05:58;0.10;99.90
25582;DHT22;13462;50.764;4.332;2023-03-01T01:08:23;0.00;99.90
25582;DHT22;13462;50.764;4.332;2023-03-01T01:10:49;0.00;99.90
25582;DHT22;13462;50.764;4.332;2023-03-01T01:13:14;0.10;99.90
25582;DHT22;13462;50.764;4.332;2023-03-01T01:15:40;0.20;99.90
25582;DHT22;13462;50.764;4.332;2023-03-01T01:18:06;0.20;99.90
25582;DHT22;13462;50.764;4.332;2023-03-01T01:20:31;0.30;99.90
25582;DHT22;13462;50.764;4.332;2023-03-01T01:22:57;0.40;99.90
25582;DHT22;13462;50.764;4.332;2023-03-01T01:25:23;0.30;99.90
25582;DHT22;13462;50.764;4.332;2023-03-01T01:27:50;0.30;99.90
25582;DHT22;13462;50.764;4.332;2023-03-01T01:30:16;0.20;99.90
25582;DHT22;13462;50.764;4.332;2023-03-01T01:32:45;0.30;99.90
25582;DHT22;13462;50.764;4.332;2023-03-01T01:35:10;0.30;99.90
25582;DHT22;13462;50.764;4.332;2023-03-01T01:37:36;0.30;99.90
25582;DHT22;13462;50.764;4.332;2023-03-01T01:40:01;0.20;99.90
25582;DHT22;13462;50.764;4.332;2023-03-01T01:42:29;0.20;99.90
25582;DHT22;13462;50.764;4.332;2023-03-01T01:47:39;0.20;99.90
25582;DHT22;13462;50.764;4.332;2023-03-01T01:50:05;0.20;99.90
25582;DHT22;13462;50.764;4.332;2023-03-01T01:52:31;0.10;99.90
25582;DHT22;13462;50.764;4.332;2023-03-01T01:55:07;0.00;99.90
25582;DHT22;13462;50.764;4.332;2023-03-01T02:00:00;0.10;99.90
25582;DHT22;13462;50.764;4.332;2023-03-01T02:02:28;0.10;99.90
25582;DHT22;13462;50.764;4.332;2023-03-01T02:04:55;0.00;99.90
25582;DHT22;13462;50.764;4.332;2023-03-01T02:07:25;0.00;99.90
25582;DHT22;13462;50.764;4.332;2023-03-01T02:09:52;0.00;99.90
25582;DHT22;13462;50.764;4.332;2023-03-01T02:12:19;0.10;99.90
25582;DHT22;13462;50.764;4.332;2023-03-01T02:14:45;0.10;99.90
25582;DHT22;13462;50.764;4.332;2023-03-01T02:17:11;0.10;99.90
25582;DHT22;13462;50.764;4.332;2023-03-01T02:22:06;0.20;99.90
25582;DHT22;13462;50.764;4.332;2023-03-01T02:24:51;0.20;99.90
25582;DHT22;13462;50.764;4.332;2023-03-01T02:27:22;0.00;99.90
25582;DHT22;13462;50.764;4.332;2023-03-01T02:29:50;0.00;99.90
25582;DHT22;13462;50.764;4.332;2023-03-01T02:32:18;0.00;99.90
25582;DHT22;13462;50.764;4.332;2023-03-01T02:34:53;0.00;99.90
25582;DHT22;13462;50.764;4.332;2023-03-01T02:37:19;0.00;99.90
25582;DHT22;13462;50.764;4.332;2023-03-01T02:40:01;0.00;99.90
25582;DHT22;13462;50.764;4.332;2023-03-01T02:42:35;0.00;99.90
25582;DHT22;13462;50.764;4.332;2023-03-01T02:45:02;-0.10;99.90
25582;DHT22;13462;50.764;4.332;2023-03-01T02:47:28;-0.20;99.90
25582;DHT22;13462;50.764;4.332;2023-03-01T02:49:54;-0.20;99.90
25582;DHT22;13462;50.764;4.332;2023-03-01T02:55:09;-0.30;99.90
25582;DHT22;13462;50.764;4.332;2023-03-01T02:57:36;-0.40;99.90
25582;DHT22;13462;50.764;4.332;2023-03-01T03:00:07;-0.50;99.90
25582;DHT22;13462;50.764;4.332;2023-03-01T03:02:36;-0.50;99.90
25582;DHT22;13462;50.764;4.332;2023-03-01T03:05:06;-0.40;99.90
25582;DHT22;13462;50.764;4.332;2023-03-01T03:07:34;-0.30;99.90
25582;DHT22;13462;50.764;4.332;2023-03-01T03:10:00;-0.40;99.90
25582;DHT22;13462;50.764;4.332;2023-03-01T03:12:28;-0.40;99.90
25582;DHT22;13462;50.764;4.332;2023-03-01T03:14:53;-0.50;99.90
25582;DHT22;13462;50.764;4.332;2023-03-01T03:17:19;-0.50;99.90
25582;DHT22;13462;50.764;4.332;2023-03-01T03:19:45;-0.40;99.90
25582;DHT22;13462;50.764;4.332;2023-03-01T03:22:11;-0.40;99.90
25582;DHT22;13462;50.764;4.332;2023-03-01T03:24:37;-0.40;99.90
25582;DHT22;13462;50.764;4.332;2023-03-01T03:27:03;-0.40;99.90
25582;DHT22;13462;50.764;4.332;2023-03-01T03:29:29;-0.30;99.90
25582;DHT22;13462;50.764;4.332;2023-03-01T03:31:55;-0.50;99.90
25582;DHT22;13462;50.764;4.332;2023-03-01T03:34:20;-0.50;99.90
25582;DHT22;13462;50.764;4.332;2023-03-01T03:36:46;-0.60;99.90
25582;DHT22;13462;50.764;4.332;2023-03-01T03:39:11;-0.60;99.90
25582;DHT22;13462;50.764;4.332;2023-03-01T03:41:40;-0.50;99.90
25582;DHT22;13462;50.764;4.332;2023-03-01T03:44:06;-0.60;99.90
25582;DHT22;13462;50.764;4.332;2023-03-01T03:46:31;-0.70;99.90
25582;DHT22;13462;50.764;4.332;2023-03-01T03:48:57;-0.70;99.90
25582;DHT22;13462;50.764;4.332;2023-03-01T03:51:28;-0.70;99.90
25582;DHT22;13462;50.764;4.332;2023-03-01T03:53:53;-0.70;99.90
25582;DHT22;13462;50.764;4.332;2023-03-01T03:56:19;-0.70;99.90
25582;DHT22;13462;50.764;4.332;2023-03-01T03:58:45;-0.70;99.90
25582;DHT22;13462;50.764;4.332;2023-03-01T04:01:10;-0.60;99.90
25582;DHT22;13462;50.764;4.332;2023-03-01T04:03:36;-0.50;99.90
25582;DHT22;13462;50.764;4.332;2023-03-01T04:09:17;-0.60;99.90
25582;DHT22;13462;50.764;4.332;2023-03-01T04:11:43;-0.60;99.90
25582;DHT22;13462;50.764;4.332;2023-03-01T04:14:09;-0.60;99.90
25582;DHT22;13462;50.764;4.332;2023-03-01T04:16:35;-0.60;99.90
25582;DHT22;13462;50.764;4.332;2023-03-01T04:19:03;-0.60;99.90
25582;DHT22;13462;50.764;4.332;2023-03-01T04:21:28;-0.60;99.90
25582;DHT22;13462;50.764;4.332;2023-03-01T04:23:54;-0.60;99.90
25582;DHT22;13462;50.764;4.332;2023-03-01T04:26:23;-0.60;99.90
25582;DHT22;13462;50.764;4.332;2023-03-01T04:28:52;-0.70;99.90
25582;DHT22;13462;50.764;4.332;2023-03-01T04:31:20;-0.70;99.90
25582;DHT22;13462;50.764;4.332;2023-03-01T04:33:55;-0.70;99.90
25582;DHT22;13462;50.764;4.332;2023-03-01T04:36:23;-0.70;99.90
25582;DHT22;13462;50.764;4.332;2023-03-01T04:38:48;-0.90;99.90
25582;DHT22;13462;50.764;4.332;2023-03-01T04:41:15;-0.80;99.90
25582;DHT22;13462;50.764;4.332;2023-03-01T04:43:44;-0.80;99.90
25582;DHT22;13462;50.764;4.332;2023-03-01T04:46:14;-0.80;99.90
25582;DHT22;13462;50.764;4.332;2023-03-01T04:48:48;-0.90;99.90
25582;DHT22;13462;50.764;4.332;2023-03-01T04:51:14;-0.90;99.90
25582;DHT22;13462;50.764;4.332;2023-03-01T04:53:41;-0.80;99.90
25582;DHT22;13462;50.764;4.332;2023-03-01T04:56:40;-0.80;99.90
25582;DHT22;13462;50.764;4.332;2023-03-01T04:59:19;-0.80;99.90
25582;DHT22;13462;50.764;4.332;2023-03-01T05:01:53;-0.90;99.90
25582;DHT22;13462;50.764;4.332;2023-03-01T05:04:22;-0.90;99.90
25582;DHT22;13462;50.764;4.332;2023-03-01T05:06:59;-0.80;99.90
25582;DHT22;13462;50.764;4.332;2023-03-01T05:09:24;-0.80;99.90
25582;DHT22;13462;50.764;4.332;2023-03-01T05:11:50;-0.80;99.90
25582;DHT22;13462;50.764;4.332;2023-03-01T05:14:16;-0.80;99.90
25582;DHT22;13462;50.764;4.332;2023-03-01T05:16:47;-0.90;99.90
25582;DHT22;13462;50.764;4.332;2023-03-01T05:25:01;-1.10;99.90
25582;DHT22;13462;50.764;4.332;2023-03-01T05:27:27;-1.10;99.90
25582;DHT22;13462;50.764;4.332;2023-03-01T05:29:58;-1.00;99.90
25582;DHT22;13462;50.764;4.332;2023-03-01T05:32:39;-1.10;99.90
25582;DHT22;13462;50.764;4.332;2023-03-01T05:35:05;-1.10;99.90
25582;DHT22;13462;50.764;4.332;2023-03-01T05:37:30;-1.10;99.90
25582;DHT22;13462;50.764;4.332;2023-03-01T05:39:56;-1.10;99.90
25582;DHT22;13462;50.764;4.332;2023-03-01T05:42:21;-1.10;99.90
25582;DHT22;13462;50.764;4.332;2023-03-01T05:44:47;-1.20;99.90
25582;DHT22;13462;50.764;4.332;2023-03-01T05:47:12;-1.10;99.90
25582;DHT22;13462;50.764;4.332;2023-03-01T05:49:38;-1.10;99.90
25582;DHT22;13462;50.764;4.332;2023-03-01T05:52:03;-1.10;99.90
25582;DHT22;13462;50.764;4.332;2023-03-01T05:54:29;-1.10;99.90
25582;DHT22;13462;50.764;4.332;2023-03-01T05:56:54;-1.10;99.90
25582;DHT22;13462;50.764;4.332;2023-03-01T05:59:20;-1.10;99.90
25582;DHT22;13462;50.764;4.332;2023-03-01T06:01:45;-1.20;99.90
25582;DHT22;13462;50.764;4.332;2023-03-01T06:04:11;-1.20;99.90
25582;DHT22;13462;50.764;4.332;2023-03-01T06:06:36;-1.10;99.90
25582;DHT22;13462;50.764;4.332;2023-03-01T06:09:03;-1.20;99.90
25582;DHT22;13462;50.764;4.332;2023-03-01T06:11:28;-1.20;99.90
25582;DHT22;13462;50.764;4.332;2023-03-01T06:13:54;-1.30;99.90
25582;DHT22;13462;50.764;4.332;2023-03-01T06:16:19;-1.30;99.90
25582;DHT22;13462;50.764;4.332;2023-03-01T06:18:45;-1.30;99.90
25582;DHT22;13462;50.764;4.332;2023-03-01T06:21:10;-1.30;99.90
25582;DHT22;13462;50.764;4.332;2023-03-01T06:23:35;-1.30;99.90
25582;DHT22;13462;50.764;4.332;2023-03-01T06:26:04;-1.20;99.90
25582;DHT22;13462;50.764;4.332;2023-03-01T06:28:30;-1.30;99.90
25582;DHT22;13462;50.764;4.332;2023-03-01T06:30:55;-1.30;99.90
25582;DHT22;13462;50.764;4.332;2023-03-01T06:33:21;-1.30;99.90
25582;DHT22;13462;50.764;4.332;2023-03-01T06:35:48;-1.30;99.90
25582;DHT22;13462;50.764;4.332;2023-03-01T06:38:14;-1.30;99.90
25582;DHT22;13462;50.764;4.332;2023-03-01T06:40:44;-1.30;99.90
25582;DHT22;13462;50.764;4.332;2023-03-01T06:43:10;-1.30;99.90
25582;DHT22;13462;50.764;4.332;2023-03-01T06:45:36;-1.30;99.90
25582;DHT22;13462;50.764;4.332;2023-03-01T06:48:05;-1.20;99.90
25582;DHT22;13462;50.764;4.332;2023-03-01T06:50:31;-1.30;99.90
25582;DHT22;13462;50.764;4.332;2023-03-01T06:52:57;-1.30;99.90
25582;DHT22;13462;50.764;4.332;2023-03-01T06:55:22;-1.20;99.90
25582;DHT22;13462;50.764;4.332;2023-03-01T06:57:48;-1.10;99.90
25582;DHT22;13462;50.764;4.332;2023-03-01T07:00:13;-0.80;99.90
25582;DHT22;13462;50.764;4.332;2023-03-01T07:02:39;-0.40;99.90
25582;DHT22;13462;50.764;4.332;2023-03-01T07:05:05;-0.30;99.90
25582;DHT22;13462;50.764;4.332;2023-03-01T07:07:30;-0.30;99.90
25582;DHT22;13462;50.764;4.332;2023-03-01T07:09:56;-0.30;99.90
25582;DHT22;13462;50.764;4.332;2023-03-01T07:12:21;-0.40;99.90
25582;DHT22;13462;50.764;4.332;2023-03-01T07:14:47;-0.60;99.90
25582;DHT22;13462;50.764;4.332;2023-03-01T07:17:12;-0.50;99.90
25582;DHT22;13462;50.764;4.332;2023-03-01T07:19:38;-0.50;99.90
25582;DHT22;13462;50.764;4.332;2023-03-01T07:22:03;-0.50;99.90
25582;DHT22;13462;50.764;4.332;2023-03-01T07:24:29;-0.60;99.90
25582;DHT22;13462;50.764;4.332;2023-03-01T07:26:55;-0.50;99.90
25582;DHT22;13462;50.764;4.332;2023-03-01T07:29:20;-0.50;99.90
25582;DHT22;13462;50.764;4.332;2023-03-01T07:31:45;-0.40;99.90
25582;DHT22;13462;50.764;4.332;2023-03-01T07:34:11;-0.40;99.90
25582;DHT22;13462;50.764;4.332;2023-03-01T07:36:37;-0.30;99.90
25582;DHT22;13462;50.764;4.332;2023-03-01T07:39:02;0.50;99.90
25582;DHT22;13462;50.764;4.332;2023-03-01T07:41:28;1.60;99.90
25582;DHT22;13462;50.764;4.332;2023-03-01T07:43:54;3.30;99.90
25582;DHT22;13462;50.764;4.332;2023-03-01T07:46:20;4.70;99.90
25582;DHT22;13462;50.764;4.332;2023-03-01T07:48:45;5.20;99.90
25582;DHT22;13462;50.764;4.332;2023-03-01T07:51:11;6.30;99.90
25582;DHT22;13462;50.764;4.332;2023-03-01T07:53:37;7.80;97.70
25582;DHT22;13462;50.764;4.332;2023-03-01T07:56:09;8.40;94.70
25582;DHT22;13462;50.764;4.332;2023-03-01T07:58:35;8.80;92.40
25582;DHT22;13462;50.764;4.332;2023-03-01T08:01:02;9.20;90.50
25582;DHT22;13462;50.764;4.332;2023-03-01T08:03:27;9.90;90.20
25582;DHT22;13462;50.764;4.332;2023-03-01T08:05:53;10.80;85.30
25582;DHT22;13462;50.764;4.332;2023-03-01T08:08:18;11.80;82.40
25582;DHT22;13462;50.764;4.332;2023-03-01T08:10:44;12.10;78.00
25582;DHT22;13462;50.764;4.332;2023-03-01T08:13:09;12.50;76.20
25582;DHT22;13462;50.764;4.332;2023-03-01T08:15:35;12.10;75.10
25582;DHT22;13462;50.764;4.332;2023-03-01T08:18:00;11.70;76.20
25582;DHT22;13462;50.764;4.332;2023-03-01T08:20:26;12.60;73.30
25582;DHT22;13462;50.764;4.332;2023-03-01T08:22:51;12.10;72.30
25582;DHT22;13462;50.764;4.332;2023-03-01T08:25:16;12.20;73.40
25582;DHT22;13462;50.764;4.332;2023-03-01T08:27:42;13.30;73.20
25582;DHT22;13462;50.764;4.332;2023-03-01T08:30:08;14.10;68.70
25582;DHT22;13462;50.764;4.332;2023-03-01T08:32:37;14.50;66.30
25582;DHT22;13462;50.764;4.332;2023-03-01T08:35:03;14.70;64.40
25582;DHT22;13462;50.764;4.332;2023-03-01T08:37:28;15.20;63.10
25582;DHT22;13462;50.764;4.332;2023-03-01T08:39:56;15.90;62.60
25582;DHT22;13462;50.764;4.332;2023-03-01T08:42:21;15.70;61.10
25582;DHT22;13462;50.764;4.332;2023-03-01T08:44:47;16.70;60.70
25582;DHT22;13462;50.764;4.332;2023-03-01T08:47:12;16.70;58.10
25582;DHT22;13462;50.764;4.332;2023-03-01T08:49:38;17.20;56.40
25582;DHT22;13462;50.764;4.332;2023-03-01T08:52:03;16.70;57.00
25582;DHT22;13462;50.764;4.332;2023-03-01T08:54:29;16.20;55.90
25582;DHT22;13462;50.764;4.332;2023-03-01T08:56:54;15.40;57.40
25582;DHT22;13462;50.764;4.332;2023-03-01T08:59:20;13.90;59.10
25582;DHT22;13462;50.764;4.332;2023-03-01T09:01:45;13.40;60.60
25582;DHT22;13462;50.764;4.332;2023-03-01T09:04:11;13.90;60.80
25582;DHT22;13462;50.764;4.332;2023-03-01T09:06:37;13.50;60.70
25582;DHT22;13462;50.764;4.332;2023-03-01T09:09:03;14.00;60.60
25582;DHT22;13462;50.764;4.332;2023-03-01T09:11:29;14.40;60.80
25582;DHT22;13462;50.764;4.332;2023-03-01T09:13:55;15.10;60.70
25582;DHT22;13462;50.764;4.332;2023-03-01T09:16:22;15.60;58.70
25582;DHT22;13462;50.764;4.332;2023-03-01T09:18:48;17.10;57.70
25582;DHT22;13462;50.764;4.332;2023-03-01T09:21:14;17.10;54.80
25582;DHT22;13462;50.764;4.332;2023-03-01T09:23:44;16.80;55.20
25582;DHT22;13462;50.764;4.332;2023-03-01T09:26:11;16.60;54.60
25582;DHT22;13462;50.764;4.332;2023-03-01T09:28:37;16.00;55.30
25582;DHT22;13462;50.764;4.332;2023-03-01T09:31:02;15.50;56.20
25582;DHT22;13462;50.764;4.332;2023-03-01T09:33:29;15.00;56.40
25582;DHT22;13462;50.764;4.332;2023-03-01T09:36:05;14.90;57.20
25582;DHT22;13462;50.764;4.332;2023-03-01T09:38:31;15.10;56.50
25582;DHT22;13462;50.764;4.332;2023-03-01T09:40:56;14.70;56.90
25582;DHT22;13462;50.764;4.332;2023-03-01T09:46:08;14.30;58.40
25582;DHT22;13462;50.764;4.332;2023-03-01T09:49:18;14.60;58.30
25582;DHT22;13462;50.764;4.332;2023-03-01T09:51:26;15.60;57.50
25582;DHT22;13462;50.764;4.332;2023-03-01T09:53:52;16.60;55.80
25582;DHT22;13462;50.764;4.332;2023-03-01T09:56:20;17.10;55.00
25582;DHT22;13462;50.764;4.332;2023-03-01T10:04:00;17.90;52.90
25582;DHT22;13462;50.764;4.332;2023-03-01T10:06:27;17.30;52.70
25582;DHT22;13462;50.764;4.332;2023-03-01T10:08:54;15.60;53.90
25582;DHT22;13462;50.764;4.332;2023-03-01T10:16:43;16.30;54.10
25582;DHT22;13462;50.764;4.332;2023-03-01T10:19:22;15.90;53.60
25582;DHT22;13462;50.764;4.332;2023-03-01T10:21:48;15.50;54.10
25582;DHT22;13462;50.764;4.332;2023-03-01T10:24:17;15.80;53.80
25582;DHT22;13462;50.764;4.332;2023-03-01T10:26:51;15.20;55.50
25582;DHT22;13462;50.764;4.332;2023-03-01T10:29:18;16.20;55.10
25582;DHT22;13462;50.764;4.332;2023-03-01T10:31:49;16.50;54.80
25582;DHT22;13462;50.764;4.332;2023-03-01T10:36:41;16.20;53.30
25582;DHT22;13462;50.764;4.332;2023-03-01T10:39:14;16.60;54.00
25582;DHT22;13462;50.764;4.332;2023-03-01T10:47:02;16.40;53.80
25582;DHT22;13462;50.764;4.332;2023-03-01T10:49:27;16.60;54.30
25582;DHT22;13462;50.764;4.332;2023-03-01T10:51:53;17.30;54.40
25582;DHT22;13462;50.764;4.332;2023-03-01T10:56:51;17.50;52.40
25582;DHT22;13462;50.764;4.332;2023-03-01T10:59:38;16.90;52.60
25582;DHT22;13462;50.764;4.332;2023-03-01T11:02:15;17.00;52.50
25582;DHT22;13462;50.764;4.332;2023-03-01T11:07:35;17.50;50.70
25582;DHT22;13462;50.764;4.332;2023-03-01T11:10:11;16.70;51.60
25582;DHT22;13462;50.764;4.332;2023-03-01T11:12:37;16.90;51.70
25582;DHT22;13462;50.764;4.332;2023-03-01T11:15:02;16.90;51.80
25582;DHT22;13462;50.764;4.332;2023-03-01T11:17:31;17.30;51.30
25582;DHT22;13462;50.764;4.332;2023-03-01T11:20:01;17.60;50.70
25582;DHT22;13462;50.764;4.332;2023-03-01T11:22:29;17.70;50.70
25582;DHT22;13462;50.764;4.332;2023-03-01T11:24:56;17.90;48.90
25582;DHT22;13462;50.764;4.332;2023-03-01T11:27:26;18.30;49.60
25582;DHT22;13462;50.764;4.332;2023-03-01T11:29:56;17.70;50.50
25582;DHT22;13462;50.764;4.332;2023-03-01T11:32:23;17.60;51.50
25582;DHT22;13462;50.764;4.332;2023-03-01T11:34:51;17.00;52.30
25582;DHT22;13462;50.764;4.332;2023-03-01T11:37:35;17.00;52.80
25582;DHT22;13462;50.764;4.332;2023-03-01T11:40:22;16.90;51.40
25582;DHT22;13462;50.764;4.332;2023-03-01T11:42:55;17.30;51.30
25582;DHT22;13462;50.764;4.332;2023-03-01T11:45:22;16.40;51.90
25582;DHT22;13462;50.764;4.332;2023-03-01T11:50:26;16.60;51.40
25582;DHT22;13462;50.764;4.332;2023-03-01T12:06:02;17.40;51.50
25582;DHT22;13462;50.764;4.332;2023-03-01T12:11:06;17.00;50.60
25582;DHT22;13462;50.764;4.332;2023-03-01T12:18:48;16.40;51.70
25582;DHT22;13462;50.764;4.332;2023-03-01T12:21:26;16.10;52.50
25582;DHT22;13462;50.764;4.332;2023-03-01T12:26:43;17.30;51.00
25582;DHT22;13462;50.764;4.332;2023-03-01T12:42:01;16.60;50.30
25582;DHT22;13462;50.764;4.332;2023-03-01T12:44:39;16.00;50.80
25582;DHT22;13462;50.764;4.332;2023-03-01T12:49:43;16.50;50.30
25582;DHT22;13462;50.764;4.332;2023-03-01T12:52:11;17.20;50.50
25582;DHT22;13462;50.764;4.332;2023-03-01T12:54:39;17.80;49.80
25582;DHT22;13462;50.764;4.332;2023-03-01T12:57:18;17.40;49.30
25582;DHT22;13462;50.764;4.332;2023-03-01T12:59:50;17.80;50.20
25582;DHT22;13462;50.764;4.332;2023-03-01T13:12:51;17.90;49.80
25582;DHT22;13462;50.764;4.332;2023-03-01T13:17:49;19.30;47.20
25582;DHT22;13462;50.764;4.332;2023-03-01T13:20:16;19.50;47.00
25582;DHT22;13462;50.764;4.332;2023-03-01T13:22:42;19.10;47.20
25582;DHT22;13462;50.764;4.332;2023-03-01T13:25:13;18.30;48.60
25582;DHT22;13462;50.764;4.332;2023-03-01T13:27:39;18.70;47.20
25582;DHT22;13462;50.764;4.332;2023-03-01T13:30:12;18.20;47.10
25582;DHT22;13462;50.764;4.332;2023-03-01T13:32:50;17.80;46.80
25582;DHT22;13462;50.764;4.332;2023-03-01T13:37:43;17.00;47.90
25582;DHT22;13462;50.764;4.332;2023-03-01T13:42:45;16.60;48.40
25582;DHT22;13462;50.764;4.332;2023-03-01T13:47:43;16.00;51.60
25582;DHT22;13462;50.764;4.332;2023-03-01T13:50:16;15.90;50.10
25582;DHT22;13462;50.764;4.332;2023-03-01T13:52:44;16.10;51.10
25582;DHT22;13462;50.764;4.332;2023-03-01T13:57:46;15.60;51.30
25582;DHT22;13462;50.764;4.332;2023-03-01T14:03:00;15.80;51.80
25582;DHT22;13462;50.764;4.332;2023-03-01T14:05:25;15.50;51.50
25582;DHT22;13462;50.764;4.332;2023-03-01T14:07:51;15.10;53.70
25582;DHT22;13462;50.764;4.332;2023-03-01T14:10:17;14.20;53.00
25582;DHT22;13462;50.764;4.332;2023-03-01T14:12:48;13.60;54.90
25582;DHT22;13462;50.764;4.332;2023-03-01T14:17:46;13.00;56.50
25582;DHT22;13462;50.764;4.332;2023-03-01T14:20:20;13.50;54.50
25582;DHT22;13462;50.764;4.332;2023-03-01T14:22:47;13.70;53.30
25582;DHT22;13462;50.764;4.332;2023-03-01T14:27:41;13.60;54.50
25582;DHT22;13462;50.764;4.332;2023-03-01T14:30:20;13.30;54.50
25582;DHT22;13462;50.764;4.332;2023-03-01T14:32:57;13.30;55.20
25582;DHT22;13462;50.764;4.332;2023-03-01T14:35:24;13.20;55.90
25582;DHT22;13462;50.764;4.332;2023-03-01T14:37:50;13.30;55.40
25582;DHT22;13462;50.764;4.332;2023-03-01T14:40:23;13.00;54.90
25582;DHT22;13462;50.764;4.332;2023-03-01T14:42:49;12.30;55.40
25582;DHT22;13462;50.764;4.332;2023-03-01T14:45:16;11.80;56.50
25582;DHT22;13462;50.764;4.332;2023-03-01T14:47:43;11.50;57.90
25582;DHT22;13462;50.764;4.332;2023-03-01T14:50:14;11.70;58.10
25582;DHT22;13462;50.764;4.332;2023-03-01T14:52:42;11.50;58.00
25582;DHT22;13462;50.764;4.332;2023-03-01T14:55:20;11.20;59.30
25582;DHT22;13462;50.764;4.332;2023-03-01T14:57:49;11.30;59.20
25582;DHT22;13462;50.764;4.332;2023-03-01T15:00:17;11.20;59.30
25582;DHT22;13462;50.764;4.332;2023-03-01T15:02:43;11.00;59.60
25582;DHT22;13462;50.764;4.332;2023-03-01T15:05:09;10.90;59.80
25582;DHT22;13462;50.764;4.332;2023-03-01T15:07:38;10.30;60.70
25582;DHT22;13462;50.764;4.332;2023-03-01T15:10:05;10.10;61.50
25582;DHT22;13462;50.764;4.332;2023-03-01T15:12:35;10.10;63.30
25582;DHT22;13462;50.764;4.332;2023-03-01T15:15:01;9.90;61.80
25582;DHT22;13462;50.764;4.332;2023-03-01T15:17:36;9.70;63.40
25582;DHT22;13462;50.764;4.332;2023-03-01T15:20:04;9.70;64.90
25582;DHT22;13462;50.764;4.332;2023-03-01T15:22:30;9.60;66.40
25582;DHT22;13462;50.764;4.332;2023-03-01T15:24:56;9.50;64.80
25582;DHT22;13462;50.764;4.332;2023-03-01T15:27:23;9.20;65.80
25582;DHT22;13462;50.764;4.332;2023-03-01T15:29:50;9.10;65.90
25582;DHT22;13462;50.764;4.332;2023-03-01T15:34:47;8.80;66.90
25582;DHT22;13462;50.764;4.332;2023-03-01T15:39:57;8.20;68.10
25582;DHT22;13462;50.764;4.332;2023-03-01T15:45:07;8.10;68.30
25582;DHT22;13462;50.764;4.332;2023-03-01T15:47:33;8.00;67.90
25582;DHT22;13462;50.764;4.332;2023-03-01T15:49:59;8.00;68.50
25582;DHT22;13462;50.764;4.332;2023-03-01T15:52:33;8.00;68.30
25582;DHT22;13462;50.764;4.332;2023-03-01T15:55:03;7.90;68.60
25582;DHT22;13462;50.764;4.332;2023-03-01T15:57:29;7.90;69.00
25582;DHT22;13462;50.764;4.332;2023-03-01T15:59:55;7.90;68.70
25582;DHT22;13462;50.764;4.332;2023-03-01T16:02:21;7.70;69.00
25582;DHT22;13462;50.764;4.332;2023-03-01T16:04:47;7.70;69.50
25582;DHT22;13462;50.764;4.332;2023-03-01T16:07:14;7.70;70.10
25582;DHT22;13462;50.764;4.332;2023-03-01T16:09:39;7.70;69.50
25582;DHT22;13462;50.764;4.332;2023-03-01T16:12:05;7.70;69.20
25582;DHT22;13462;50.764;4.332;2023-03-01T16:14:31;7.70;69.40
25582;DHT22;13462;50.764;4.332;2023-03-01T16:16:56;7.50;69.70
25582;DHT22;13462;50.764;4.332;2023-03-01T16:19:22;7.50;70.00
25582;DHT22;13462;50.764;4.332;2023-03-01T16:21:47;7.50;70.20
25582;DHT22;13462;50.764;4.332;2023-03-01T16:24:14;7.50;71.00
25582;DHT22;13462;50.764;4.332;2023-03-01T16:26:40;7.50;70.70
25582;DHT22;13462;50.764;4.332;2023-03-01T16:29:05;7.40;71.30
25582;DHT22;13462;50.764;4.332;2023-03-01T16:31:31;7.30;70.60
25582;DHT22;13462;50.764;4.332;2023-03-01T16:33:57;7.20;71.10
25582;DHT22;13462;50.764;4.332;2023-03-01T16:36:24;7.10;71.60
25582;DHT22;13462;50.764;4.332;2023-03-01T16:38:50;7.00;71.60
25582;DHT22;13462;50.764;4.332;2023-03-01T16:41:16;7.00;72.80
25582;DHT22;13462;50.764;4.332;2023-03-01T16:43:42;7.00;72.00
25582;DHT22;13462;50.764;4.332;2023-03-01T16:46:14;6.90;72.00
25582;DHT22;13462;50.764;4.332;2023-03-01T16:48:40;6.80;72.20
25582;DHT22;13462;50.764;4.332;2023-03-01T16:51:06;6.70;73.00
25582;DHT22;13462;50.764;4.332;2023-03-01T16:53:33;6.70;73.00
25582;DHT22;13462;50.764;4.332;2023-03-01T16:55:59;6.60;73.20
25582;DHT22;13462;50.764;4.332;2023-03-01T16:58:25;6.50;73.50
25582;DHT22;13462;50.764;4.332;2023-03-01T17:00:53;6.40;74.50
25582;DHT22;13462;50.764;4.332;2023-03-01T17:03:20;6.30;74.90
25582;DHT22;13462;50.764;4.332;2023-03-01T17:05:46;6.20;76.30
25582;DHT22;13462;50.764;4.332;2023-03-01T17:08:11;6.30;75.60
25582;DHT22;13462;50.764;4.332;2023-03-01T17:10:37;6.30;75.80
25582;DHT22;13462;50.764;4.332;2023-03-01T17:13:02;6.30;76.70
25582;DHT22;13462;50.764;4.332;2023-03-01T17:15:28;6.10;76.60
25582;DHT22;13462;50.764;4.332;2023-03-01T17:17:54;6.00;77.30
25582;DHT22;13462;50.764;4.332;2023-03-01T17:20:19;6.00;77.30
25582;DHT22;13462;50.764;4.332;2023-03-01T17:22:45;6.00;77.50
25582;DHT22;13462;50.764;4.332;2023-03-01T17:25:11;5.90;77.70
25582;DHT22;13462;50.764;4.332;2023-03-01T17:27:37;5.90;78.20
25582;DHT22;13462;50.764;4.332;2023-03-01T17:30:03;5.80;78.50
25582;DHT22;13462;50.764;4.332;2023-03-01T17:32:29;5.70;79.60
25582;DHT22;13462;50.764;4.332;2023-03-01T17:34:54;5.60;80.20
25582;DHT22;13462;50.764;4.332;2023-03-01T17:37:20;5.60;80.40
25582;DHT22;13462;50.764;4.332;2023-03-01T17:39:45;5.50;81.30
25582;DHT22;13462;50.764;4.332;2023-03-01T17:42:11;5.40;82.10
25582;DHT22;13462;50.764;4.332;2023-03-01T17:44:36;5.40;82.10